Manistique, MI (49854)

2:05 AM EDT on September 01, 2016 (GMT -0400)
Schoolcraft County | | Change Station

Elev 686 ft 45.97 °N, 86.17 °W | Updated 10 minutes ago

Overcast
Overcast
57 °F
Feels Like 57 °F
N
5
Wind Variable Wind from NNW

Today
High -- | Low -- °F
--% Chance of Precip.
Yesterday
High -- | Low -- °F
Precip. -- in
Pressure 30.16 in
Visibility 10.0 miles
Clouds Overcast 7500 ft
Dew Point 55 °F
Humidity 92%
Rainfall 0.00 in
Snow Depth Not available.
7:06 AM 8:22 PM
Waning Crescent, 0% visible
METAR KISQ 010555Z AUTO 33004KT 10SM OVC075 14/13 A3016 RMK AO2 T01400127 10173 20132
Pressure 30.16 in
Visibility 10.0 miles
Clouds Overcast 7500 ft
Dew Point 55 °F
Humidity 92%
Rainfall 0.00 in
Snow Depth Not available.
7:06 AM 8:22 PM
Waning Crescent, 0% visible
METAR KISQ 010555Z AUTO 33004KT 10SM OVC075 14/13 A3016 RMK AO2 T01400127 10173 20132

10-Day Weather Forecast

Almanac

Astronomy

Sep. 01, 2016 Rise Set
Actual Time
Civil Twilight
Nautical Twilight
Astronomical Twilight
Moon
Length of Visible Light
Length of Day
Tomorrow will be .
, % of the Moon is Illuminated

Today's Extremes

State Highs State Lows

Community

WunderPhotos

Upload Photos

1,936,313 photos uploaded!

WunderBlog® & News

Nearby

Air Quality

  Air Quality AQ Index Pollutant
Not available.

Snow Depth

Station Depth Elevation

Earthquake Activity

City Distance Mag. Time & Date
Minimum magnitude displayed is 2.5.

Coastal Water Temperatures

Place Temperature

Stations

Nearby Weather Stations

Station Location Temp. Windchill Dew Point Humidity Wind Precip. Elev Updated Type
                   

Watches & Warnings

There are currently no watches in effect.